SPJL/JUL METAR and TAF weather

Enter ICAO airport designator
Station Type Date Time Source
SPJL METAR 2019/05/27 01:00 UTC NOAA

SPJL 270100Z 22005KT CAVOK 10/M08 Q1035 RMK PP000


Station Type Date Time Source
SPJL Decoded METAR 2019/05/27 01:00 UTC NOAA

Juliaca, Peru (SPJL) 15-29S 070-09W 3827M
May 26, 2019 - 09:00 PM EDT / 2019.05.27 0100 UTC
Wind: from the SW (220 degrees) at 6 MPH (5 KT):0
Visibility: greater than 7 mile(s):0
Temperature: 50 F (10 C)
Dew Point: 17 F (-8 C)
Relative Humidity: 27%
Pressure (altimeter): 30.56 in. Hg (1035 hPa)
ob: SPJL 270100Z 22005KT CAVOK 10/M08 Q1035 RMK PP000
cycle: 1

Station Type Date Time Source
SPJL TAF 2019/05/26 18:41 UTC NOAA

TAF SPJL 261700Z 2618/2718 30005KT CAVOK TX17/2618Z TNM01/2710Z
FM270000 22003KT CAVOK

Example: see airport list